Time;durP1;ratioP1;P1;durP2;ratioP2;P2;SDS_P1;SDS_P2;PMS_P1;PMS_P2;Temp;Humidity;BMP_temperature;BMP_pressure;BME280_temperature;BME280_humidity;BME280_pressure;Samples;Min_cycle;Max_cycle;Signal;HPM_P1;HPM_P2
2023/04/20 00:02:16;;;;;;;3.42;2.40;;;;;;;6.58;44.66;102457.25;6129825;23;20093;-80
2023/04/20 00:04:43;;;;;;;2.40;2.20;;;;;;;6.55;45.00;102458.00;6130552;23;20018;-80
2023/04/20 00:07:09;;;;;;;5.80;2.45;;;;;;;6.51;45.42;102449.28;6129426;23;20530;-80
2023/04/20 00:09:36;;;;;;;2.55;2.20;;;;;;;6.47;45.80;102445.84;6129818;23;20026;-81
2023/04/20 00:12:03;;;;;;;4.50;2.33;;;;;;;6.42;45.96;102444.31;6129790;23;20168;-81
2023/04/20 00:14:29;;;;;;;2.28;2.08;;;;;;;6.38;46.36;102438.25;6129994;23;20021;-81
2023/04/20 00:16:56;;;;;;;2.88;2.60;;;;;;;6.36;46.67;102437.88;6129828;23;20074;-81
2023/04/20 00:19:22;;;;;;;3.28;2.97;;;;;;;6.30;46.54;102429.53;6129463;23;20449;-81
2023/04/20 00:21:49;;;;;;;3.40;2.55;;;;;;;6.27;46.78;102424.97;6130206;23;20022;-81
2023/04/20 00:24:15;;;;;;;6.97;3.05;;;;;;;6.24;46.86;102419.66;6128854;23;20086;-81
2023/04/20 00:26:42;;;;;;;4.47;2.90;;;;;;;6.21;47.10;102410.56;6104416;23;20026;-81
2023/04/20 00:29:08;;;;;;;3.33;3.00;;;;;;;6.17;47.56;102399.19;6103339;23;20372;-81
2023/04/20 00:31:35;;;;;;;2.60;2.42;;;;;;;6.14;48.15;102407.88;6135916;23;20010;-81
2023/04/20 00:34:02;;;;;;;6.15;3.72;;;;;;;6.12;48.27;102393.50;6133873;23;20094;-81
2023/04/20 00:36:28;;;;;;;3.80;2.90;;;;;;;6.08;48.53;102390.06;6103628;23;20077;-81
2023/04/20 00:38:58;;;;;;;3.33;3.08;;;;;;;6.05;49.03;102382.88;6129498;23;20022;-81
2023/04/20 00:41:27;;;;;;;6.32;2.58;;;;;;;6.00;49.31;102373.41;6103692;23;20849;-81
2023/04/20 00:43:53;;;;;;;3.88;3.05;;;;;;;5.96;49.99;102372.63;6104332;23;20441;-81
2023/04/20 00:46:20;;;;;;;5.53;3.20;;;;;;;5.95;49.89;102366.59;6129663;23;20090;-80
2023/04/20 00:48:50;;;;;;;4.25;3.25;;;;;;;5.94;50.20;102364.31;6129774;23;20504;-80
2023/04/20 00:51:18;;;;;;;3.92;2.97;;;;;;;5.92;50.90;102356.75;6129243;23;20456;-80
2023/04/20 00:53:45;;;;;;;4.22;3.40;;;;;;;5.92;51.15;102345.41;6079387;23;20022;-80
2023/04/20 00:56:13;;;;;;;5.40;3.35;;;;;;;5.92;51.88;102342.78;6102646;23;20109;-80
2023/04/20 00:58:41;;;;;;;3.17;2.97;;;;;;;5.90;52.00;102337.84;6098892;23;20038;-81
2023/04/20 01:01:09;;;;;;;3.50;3.20;;;;;;;5.92;52.55;102340.13;6098130;23;20074;-81
2023/04/20 01:03:38;;;;;;;3.55;2.95;;;;;;;5.92;52.68;102335.59;6102040;23;20042;-81
2023/04/20 01:06:06;;;;;;;5.18;2.88;;;;;;;5.93;52.42;102326.56;6107310;23;20492;-81
2023/04/20 01:08:32;;;;;;;2.80;2.60;;;;;;;5.94;52.70;102322.03;6100252;23;20078;-81
2023/04/20 01:11:02;;;;;;;4.10;2.90;;;;;;;5.95;52.77;102326.19;6098537;23;20030;-81
2023/04/20 01:13:29;;;;;;;3.30;2.95;;;;;;;5.96;52.99;102319.78;6100709;23;20346;-81
2023/04/20 01:15:59;;;;;;;3.97;2.85;;;;;;;5.97;53.27;102313.34;6098025;23;20030;-81
2023/04/20 01:18:25;;;;;;;4.85;3.03;;;;;;;5.97;53.42;102319.41;6100181;23;20046;-80
2023/04/20 01:20:52;;;;;;;5.43;3.13;;;;;;;5.96;53.77;102311.84;6100845;23;20365;-81
2023/04/20 01:23:19;;;;;;;4.50;2.88;;;;;;;5.96;53.84;102315.25;6097424;23;20813;-81
2023/04/20 01:25:45;;;;;;;3.97;2.92;;;;;;;5.95;54.01;102303.16;6098651;23;20015;-81
2023/04/20 01:28:13;;;;;;;12.45;3.03;;;;;;;5.94;54.16;102298.22;6099856;23;20468;-81
2023/04/20 01:30:40;;;;;;;4.60;2.97;;;;;;;5.92;54.37;102295.97;6098822;23;20480;-80
2023/04/20 01:33:07;;;;;;;3.20;2.83;;;;;;;5.90;54.59;102292.94;6100193;23;20019;-81
2023/04/20 01:35:33;;;;;;;5.85;2.80;;;;;;;5.88;54.29;102291.75;6098828;23;20364;-81
2023/04/20 01:38:00;;;;;;;4.65;2.95;;;;;;;5.88;54.77;102281.16;6109450;23;20943;-81
2023/04/20 01:40:27;;;;;;;6.18;3.15;;;;;;;5.87;55.26;102277.00;6098383;23;20955;-81
2023/04/20 01:42:53;;;;;;;3.13;2.83;;;;;;;5.85;55.40;102277.38;6098996;23;20094;-81
2023/04/20 01:45:21;;;;;;;3.65;2.83;;;;;;;5.84;55.69;102275.09;6100066;23;20022;-82
2023/04/20 01:47:47;;;;;;;4.90;3.17;;;;;;;5.83;56.03;102284.16;6098959;23;20468;-81
2023/04/20 01:50:14;;;;;;;4.63;3.30;;;;;;;5.82;56.35;102278.13;6100003;23;20828;-81
2023/04/20 01:52:40;;;;;;;3.45;3.22;;;;;;;5.81;56.64;102262.63;6099992;23;20015;-82
2023/04/20 01:55:10;;;;;;;6.65;3.22;;;;;;;5.81;56.99;102263.38;6099722;23;20078;-82
2023/04/20 01:57:37;;;;;;;4.75;3.15;;;;;;;5.81;57.50;102262.63;6106574;23;20093;-81
2023/04/20 02:00:04;;;;;;;5.78;3.33;;;;;;;5.81;57.79;102270.56;6103039;23;20065;-81
2023/04/20 02:02:39;;;;;;;3.50;3.20;;;;;;;5.82;58.15;102262.25;6130027;23;20034;-81
2023/04/20 02:05:06;;;;;;;5.90;3.60;;;;;;;5.86;58.86;102264.94;6128616;23;20424;-81
2023/04/20 02:07:33;;;;;;;4.82;3.40;;;;;;;5.88;59.03;102270.59;6103523;23;20026;-81
2023/04/20 02:09:59;;;;;;;3.05;2.85;;;;;;;5.91;59.16;102254.78;6130140;23;20066;-82
2023/04/20 02:12:29;;;;;;;5.32;3.03;;;;;;;5.95;59.41;102249.53;6129560;23;20433;-82
2023/04/20 02:14:56;;;;;;;6.68;3.83;;;;;;;5.98;59.78;102243.50;6103188;23;20022;-82
2023/04/20 02:17:23;;;;;;;3.40;3.10;;;;;;;6.01;60.05;102242.72;6129346;23;20033;-82
2023/04/20 02:19:49;;;;;;;3.25;3.00;;;;;;;6.04;60.42;102239.34;6129126;23;20025;-82
2023/04/20 02:22:16;;;;;;;5.50;3.38;;;;;;;6.06;60.69;102234.44;6129078;23;20033;-82
2023/04/20 02:24:43;;;;;;;3.85;3.53;;;;;;;6.09;60.76;102233.72;6129808;23;20015;-82
2023/04/20 02:27:09;;;;;;;3.47;3.17;;;;;;;6.10;61.08;102222.00;6128821;23;20019;-82
2023/04/20 02:29:38;;;;;;;4.45;3.83;;;;;;;6.13;61.33;102215.22;6079660;23;20023;-82
2023/04/20 02:32:06;;;;;;;8.82;3.35;;;;;;;6.13;61.73;102213.31;6102807;23;20022;-81
2023/04/20 02:34:33;;;;;;;4.30;3.50;;;;;;;6.13;62.21;102209.94;6102608;23;20022;-81
2023/04/20 02:36:59;;;;;;;3.47;3.10;;;;;;;6.13;61.55;102196.72;6078751;23;20464;-81
2023/04/20 02:39:26;;;;;;;5.00;3.22;;;;;;;6.13;61.68;102202.75;6129274;23;20018;-82
2023/04/20 02:41:53;;;;;;;5.35;3.40;;;;;;;6.13;62.06;102197.47;6138371;23;20071;-81
2023/04/20 02:44:19;;;;;;;4.30;3.67;;;;;;;6.13;62.56;102194.81;6130429;23;20015;-81
2023/04/20 02:46:47;;;;;;;4.40;3.30;;;;;;;6.14;62.56;102188.41;6103049;23;20688;-81
2023/04/20 02:49:14;;;;;;;3.67;3.28;;;;;;;6.18;62.55;102188.41;6101756;23;20049;-81
2023/04/20 02:51:42;;;;;;;4.93;3.30;;;;;;;6.22;62.37;102184.66;6103114;23;20015;-81
2023/04/20 02:54:09;;;;;;;4.80;3.38;;;;;;;6.26;62.43;102182.78;6102209;23;20365;-80
2023/04/20 02:56:36;;;;;;;3.92;3.05;;;;;;;6.30;62.56;102182.78;6102993;23;20055;-81
2023/04/20 02:59:06;;;;;;;3.97;2.95;;;;;;;6.33;62.58;102177.50;6097407;23;20029;-81
2023/04/20 03:01:48;;;;;;;4.88;3.35;;;;;;;6.37;62.65;102174.13;6098314;23;20050;-81
2023/04/20 03:04:20;;;;;;;5.68;3.13;;;;;;;6.39;62.73;102172.59;6097423;23;20495;-80
2023/04/20 03:06:59;;;;;;;3.22;2.95;;;;;;;6.44;62.66;102179.41;6098346;23;20110;-81
2023/04/20 03:09:28;;;;;;;4.25;2.85;;;;;;;6.47;62.90;102179.41;6097370;23;20101;-80
2023/04/20 03:11:57;;;;;;;2.88;2.67;;;;;;;6.50;62.83;102172.59;6099249;23;20031;-81
2023/04/20 03:14:41;;;;;;;3.70;3.13;;;;;;;6.53;62.95;102175.25;6110216;23;20034;-81
2023/04/20 03:17:08;;;;;;;4.15;3.10;;;;;;;6.55;63.25;102159.75;6099236;23;20034;-80
2023/04/20 03:19:35;;;;;;;4.22;3.33;;;;;;;6.59;63.32;102157.88;6098878;23;20023;-81
2023/04/20 03:22:03;;;;;;;8.38;3.45;;;;;;;6.62;62.62;102157.13;6099264;23;20023;-81
2023/04/20 03:24:31;;;;;;;3.47;2.78;;;;;;;6.66;62.80;102151.84;6074882;23;20046;-80
2023/04/20 03:27:01;;;;;;;5.55;3.05;;;;;;;6.70;62.86;102157.91;6099220;23;20030;-81
2023/04/20 03:29:51;;;;;;;3.38;3.08;;;;;;;6.73;62.49;102154.50;6079860;23;20471;-81
2023/04/20 03:32:19;;;;;;;12.23;3.22;;;;;;;6.76;62.87;102153.75;6097501;23;20014;-81
2023/04/20 03:34:46;;;;;;;3.10;2.90;;;;;;;6.79;62.38;102152.97;6099324;23;20026;-81
2023/04/20 03:37:13;;;;;;;4.68;2.67;;;;;;;6.81;62.44;102150.69;6098610;23;20486;-81
2023/04/20 03:39:40;;;;;;;3.72;2.90;;;;;;;6.84;62.72;102146.53;6099343;23;20019;-80
2023/04/20 03:42:06;;;;;;;3.85;3.10;;;;;;;6.86;62.71;102138.97;6100762;23;20070;-80
2023/04/20 03:44:33;;;;;;;2.70;2.50;;;;;;;6.89;62.46;102140.84;6101160;23;20093;-80
2023/04/20 03:47:02;;;;;;;6.15;3.40;;;;;;;6.92;62.47;102134.81;6080780;23;20021;-79
2023/04/20 03:49:29;;;;;;;5.80;2.45;;;;;;;6.95;62.54;102136.69;6099918;23;20026;-81
2023/04/20 03:51:55;;;;;;;2.72;2.53;;;;;;;6.96;62.70;102146.16;6099371;23;20023;-80
2023/04/20 03:54:22;;;;;;;7.03;2.92;;;;;;;6.98;62.49;102134.03;6099100;23;20025;-80
2023/04/20 03:56:49;;;;;;;2.80;2.17;;;;;;;7.01;62.26;102135.19;6098340;23;20054;-80
2023/04/20 03:59:16;;;;;;;3.33;2.67;;;;;;;7.03;62.48;102130.25;6098459;23;20019;-80
2023/04/20 04:01:46;;;;;;;6.82;3.15;;;;;;;7.05;62.38;102125.34;6098696;23;20057;-80
2023/04/20 04:04:12;;;;;;;5.40;2.80;;;;;;;7.07;62.38;102119.66;6100262;23;20715;-80
2023/04/20 04:06:40;;;;;;;2.72;2.53;;;;;;;7.08;62.64;102118.53;6101077;23;20026;-80
2023/04/20 04:09:07;;;;;;;3.83;2.80;;;;;;;7.10;62.81;102116.25;6098898;23;20047;-80
2023/04/20 04:11:34;;;;;;;3.78;2.95;;;;;;;7.11;62.89;102112.47;6099119;23;20060;-80
2023/04/20 04:14:03;;;;;;;3.42;2.80;;;;;;;7.12;62.71;102106.78;6098916;23;20015;-81
2023/04/20 04:16:31;;;;;;;6.20;2.92;;;;;;;7.14;62.54;102114.34;6098015;23;20026;-81
2023/04/20 04:18:58;;;;;;;2.90;2.70;;;;;;;7.15;61.89;102106.03;6107814;23;20029;-81
2023/04/20 04:21:24;;;;;;;4.95;3.47;;;;;;;7.16;62.35;102099.59;6100898;23;20464;-81
2023/04/20 04:23:57;;;;;;;4.50;3.15;;;;;;;7.17;62.59;102095.06;6098653;23;20504;-80
2023/04/20 04:26:35;;;;;;;3.47;3.17;;;;;;;7.17;62.78;102090.50;6099107;23;20030;-81
2023/04/20 04:29:03;;;;;;;5.85;2.85;;;;;;;7.18;62.88;102086.72;6098626;23;20015;-81
2023/04/20 04:31:32;;;;;;;2.83;2.63;;;;;;;7.19;62.90;102082.19;6100016;23;20023;-81
2023/04/20 04:34:05;;;;;;;3.90;3.20;;;;;;;7.19;63.17;102082.94;6099025;23;20398;-81
2023/04/20 04:36:38;;;;;;;4.15;3.13;;;;;;;7.20;62.85;102076.47;6099353;23;20094;-80
2023/04/20 04:39:08;;;;;;;4.18;3.00;;;;;;;7.21;62.75;102074.59;6098436;23;20023;-81
2023/04/20 04:41:37;;;;;;;3.13;2.58;;;;;;;7.21;63.13;102070.03;6099023;23;20334;-80
2023/04/20 04:44:17;;;;;;;5.93;2.90;;;;;;;7.23;63.40;102069.66;6098316;23;20023;-81
2023/04/20 04:46:44;;;;;;;4.40;3.10;;;;;;;7.23;63.56;102078.38;6098271;23;20026;-81
2023/04/20 04:49:11;;;;;;;5.30;3.38;;;;;;;7.24;63.71;102073.81;6098633;23;20140;-80
2023/04/20 04:51:39;;;;;;;3.00;2.78;;;;;;;7.24;63.96;102063.97;6106634;23;20023;-80
2023/04/20 04:54:06;;;;;;;3.15;2.50;;;;;;;7.25;64.31;102062.84;6099012;23;20023;-80
2023/04/20 04:56:32;;;;;;;3.80;2.97;;;;;;;7.28;64.42;102071.91;6099436;23;20023;-80
2023/04/20 04:58:59;;;;;;;17.60;2.92;;;;;;;7.29;64.89;102074.19;6122273;23;20022;-80
2023/04/20 05:01:25;;;;;;;5.05;2.72;;;;;;;7.32;64.86;102072.66;6129531;23;20451;-80
2023/04/20 05:03:52;;;;;;;5.35;2.58;;;;;;;7.33;64.76;102071.53;6103987;23;20106;-80
2023/04/20 05:06:19;;;;;;;7.45;2.40;;;;;;;7.34;64.74;102076.44;6129196;23;20086;-80
2023/04/20 05:08:45;;;;;;;3.40;2.15;;;;;;;7.35;65.27;102083.25;6129133;23;20021;-80
2023/04/20 05:11:12;;;;;;;3.55;2.70;;;;;;;7.35;64.69;102075.31;6128565;23;20460;-78
2023/04/20 05:13:38;;;;;;;6.25;2.72;;;;;;;7.33;64.40;102068.88;6128963;23;20424;-79
2023/04/20 05:16:05;;;;;;;5.95;2.70;;;;;;;7.33;64.41;102071.53;6129492;23;20022;-80
2023/04/20 05:18:31;;;;;;;2.90;2.58;;;;;;;7.33;64.29;102066.22;6129308;23;20460;-80
2023/04/20 05:20:58;;;;;;;6.50;2.20;;;;;;;7.33;64.90;102074.19;6129459;23;20038;-80
2023/04/20 05:23:25;;;;;;;3.65;2.60;;;;;;;7.32;65.08;102065.47;6111022;23;20341;-80
2023/04/20 05:25:51;;;;;;;4.15;2.42;;;;;;;7.32;64.98;102072.66;6130202;23;20019;-81
2023/04/20 05:28:18;;;;;;;4.72;2.60;;;;;;;7.32;64.29;102070.78;6128326;23;20042;-80
2023/04/20 05:30:44;;;;;;;2.80;2.60;;;;;;;7.36;64.27;102065.47;6130149;23;20018;-80
2023/04/20 05:33:11;;;;;;;5.90;2.80;;;;;;;7.36;64.10;102060.16;6129135;23;20021;-80
2023/04/20 05:35:39;;;;;;;3.20;2.90;;;;;;;7.39;64.05;102056.75;6129779;23;20416;-80
2023/04/20 05:38:06;;;;;;;3.10;2.50;;;;;;;7.42;64.26;102065.81;6129304;23;20018;-80
2023/04/20 05:40:34;;;;;;;2.58;2.30;;;;;;;7.43;64.22;102067.34;6129795;23;20135;-80
2023/04/20 05:43:01;;;;;;;3.83;2.10;;;;;;;7.46;64.40;102066.56;6128702;23;20025;-80
2023/04/20 05:45:27;;;;;;;2.65;2.45;;;;;;;7.46;64.52;102061.25;6129705;23;20022;-81
2023/04/20 05:47:57;;;;;;;3.42;2.15;;;;;;;7.47;64.50;102068.84;6129877;23;20057;-80
2023/04/20 05:50:24;;;;;;;5.68;2.50;;;;;;;7.50;64.43;102067.31;6129361;23;20575;-81
2023/04/20 05:52:52;;;;;;;9.48;2.45;;;;;;;7.53;64.57;102061.25;6129912;23;20014;-81
2023/04/20 05:55:19;;;;;;;2.60;2.40;;;;;;;7.56;63.92;102060.47;6136622;23;20073;-80
2023/04/20 05:57:48;;;;;;;2.72;2.45;;;;;;;7.58;63.92;102066.91;6129070;23;20015;-80
2023/04/20 06:00:15;;;;;;;8.80;2.53;;;;;;;7.59;62.87;102057.03;6129309;23;20042;-81
2023/04/20 06:02:42;;;;;;;4.28;2.92;;;;;;;7.63;63.08;102065.72;6130415;23;20049;-79
2023/04/20 06:05:09;;;;;;;2.63;2.17;;;;;;;7.65;62.35;102060.78;6130060;23;20440;-80
2023/04/20 06:07:36;;;;;;;5.75;2.38;;;;;;;7.68;62.67;102062.66;6129879;23;20046;-81
2023/04/20 06:10:04;;;;;;;3.10;2.63;;;;;;;7.72;62.25;102050.13;6128195;23;20015;-79
2023/04/20 06:12:31;;;;;;;3.35;3.00;;;;;;;7.79;61.96;102046.69;6127065;23;20025;-81
2023/04/20 06:14:58;;;;;;;3.78;2.58;;;;;;;7.82;61.56;102045.94;6127305;23;20030;-79
2023/04/20 06:17:24;;;;;;;5.28;2.20;;;;;;;7.86;61.27;102041.34;6128020;23;20021;-79
2023/04/20 06:19:51;;;;;;;6.78;2.65;;;;;;;7.89;61.50;102043.22;6129130;23;20434;-79
2023/04/20 06:22:18;;;;;;;6.95;2.60;;;;;;;7.93;61.41;102030.72;6129765;23;20022;-79
2023/04/20 06:24:45;;;;;;;3.88;2.30;;;;;;;7.91;61.54;102039.06;6130473;23;20023;-79
2023/04/20 06:27:12;;;;;;;3.75;2.40;;;;;;;7.91;61.37;102040.94;6107375;23;20532;-79
2023/04/20 06:29:38;;;;;;;4.75;2.65;;;;;;;7.90;61.31;102042.84;6132491;23;20437;-79
2023/04/20 06:32:05;;;;;;;7.70;2.70;;;;;;;7.88;61.10;102034.53;6129753;23;20014;-79
2023/04/20 06:34:31;;;;;;;3.75;2.72;;;;;;;7.86;61.19;102039.47;6130104;23;20018;-80
2023/04/20 06:36:58;;;;;;;4.70;2.95;;;;;;;7.85;61.87;102043.25;6129719;23;20760;-80
2023/04/20 06:39:25;;;;;;;2.33;2.20;;;;;;;7.82;61.67;102038.72;6103666;23;20022;-81
2023/04/20 06:41:51;;;;;;;3.35;2.70;;;;;;;7.83;62.40;102032.28;6129478;23;20354;-81
2023/04/20 06:44:20;;;;;;;3.40;2.83;;;;;;;7.83;62.06;102031.53;6103323;23;20464;-81
2023/04/20 06:46:46;;;;;;;4.85;2.90;;;;;;;7.86;63.08;102022.81;6131201;23;20026;-81
2023/04/20 06:49:13;;;;;;;4.63;2.80;;;;;;;7.88;63.55;102025.81;6080967;23;20019;-80
2023/04/20 06:51:39;;;;;;;4.13;2.97;;;;;;;7.90;63.85;102018.22;6131013;23;20054;-80
2023/04/20 06:54:06;;;;;;;3.78;3.28;;;;;;;7.94;64.12;102011.00;6130333;23;20078;-79
2023/04/20 06:56:32;;;;;;;6.18;3.72;;;;;;;7.96;65.17;102020.09;6130976;23;20023;-83
2023/04/20 06:59:01;;;;;;;7.03;3.80;;;;;;;7.98;65.55;102019.69;6131140;23;20025;-82
2023/04/20 07:01:27;;;;;;;6.85;4.07;;;;;;;7.93;65.71;102030.72;6136065;23;20018;-82
2023/04/20 07:03:54;;;;;;;6.05;3.40;;;;;;;7.92;65.99;102039.81;6131613;23;20023;-78
2023/04/20 07:06:21;;;;;;;5.45;3.15;;;;;;;7.88;66.38;102045.13;6131229;23;20025;-79
2023/04/20 07:08:47;;;;;;;3.75;3.08;;;;;;;7.83;65.92;102042.88;6104993;23;20018;-79
2023/04/20 07:11:14;;;;;;;3.40;3.10;;;;;;;7.79;66.01;102036.09;6129731;23;20021;-77
2023/04/20 07:13:40;;;;;;;3.38;3.17;;;;;;;7.77;65.94;102036.47;6130891;23;20042;-84
2023/04/20 07:16:08;;;;;;;3.13;2.80;;;;;;;7.78;66.58;102037.25;6105029;23;20026;-80
2023/04/20 07:18:35;;;;;;;5.25;3.10;;;;;;;7.82;67.08;102037.97;6105127;23;20018;-81
2023/04/20 07:21:02;;;;;;;3.88;2.85;;;;;;;7.75;67.61;102038.75;6130909;23;20010;-81
2023/04/20 07:23:28;;;;;;;6.43;3.55;;;;;;;7.75;68.10;102043.31;6131019;23;20086;-81
2023/04/20 07:25:55;;;;;;;3.63;3.33;;;;;;;7.73;68.22;102032.34;6130131;23;20431;-81
2023/04/20 07:28:21;;;;;;;4.50;3.05;;;;;;;7.80;68.81;102037.59;6131229;23;20021;-81
2023/04/20 07:30:48;;;;;;;4.95;2.88;;;;;;;7.83;68.35;102034.94;6130968;23;20081;-81
2023/04/20 07:33:14;;;;;;;7.50;3.35;;;;;;;7.88;68.33;102045.13;6110997;23;20015;-80
2023/04/20 07:35:40;;;;;;;3.33;2.83;;;;;;;7.83;68.66;102036.84;6132127;23;20040;-81
2023/04/20 07:38:07;;;;;;;8.40;2.85;;;;;;;7.75;68.85;102041.41;6130504;23;20018;-81
2023/04/20 07:40:34;;;;;;;3.50;3.20;;;;;;;7.67;68.89;102047.91;6130439;23;20425;-80
2023/04/20 07:43:00;;;;;;;6.30;3.20;;;;;;;7.58;68.50;102043.03;6130548;23;20497;-81
2023/04/20 07:45:26;;;;;;;7.40;3.40;;;;;;;7.52;69.05;102046.47;6131304;23;20015;-80
2023/04/20 07:47:54;;;;;;;4.78;2.85;;;;;;;7.45;68.99;102049.16;6131007;23;20021;-80
2023/04/20 07:50:21;;;;;;;6.45;3.10;;;;;;;7.41;69.49;102049.16;6130702;23;20073;-80
2023/04/20 07:52:47;;;;;;;12.00;3.20;;;;;;;7.36;69.52;102042.38;6130979;23;20018;-81
2023/04/20 07:55:14;;;;;;;3.70;3.25;;;;;;;7.37;70.18;102048.44;6130019;23;20440;-81
2023/04/20 07:57:41;;;;;;;4.20;3.08;;;;;;;7.35;70.00;102053.34;6130109;23;20045;-81
2023/04/20 08:00:09;;;;;;;5.20;3.08;;;;;;;7.29;69.84;102045.03;6130303;23;20034;-80
2023/04/20 08:02:38;;;;;;;3.80;3.20;;;;;;;7.25;70.06;102051.50;6130957;23;20037;-80
2023/04/20 08:05:05;;;;;;;9.18;3.10;;;;;;;7.24;70.09;102048.09;6133256;23;20014;-79
2023/04/20 08:07:32;;;;;;;4.82;3.30;;;;;;;7.27;70.47;102036.72;6108370;23;20049;-80
2023/04/20 08:10:00;;;;;;;3.42;3.15;;;;;;;7.35;70.56;102034.81;6130339;23;20074;-80
2023/04/20 08:12:26;;;;;;;3.38;3.10;;;;;;;7.44;70.66;102034.41;6130786;23;20022;-80
2023/04/20 08:14:53;;;;;;;3.47;3.17;;;;;;;7.50;70.36;102023.00;6130595;23;20401;-80
2023/04/20 08:17:19;;;;;;;3.58;2.90;;;;;;;7.59;69.95;102028.66;6130623;23;20085;-80
2023/04/20 08:19:46;;;;;;;3.45;3.00;;;;;;;7.56;69.07;102028.66;6130681;23;20022;-81
2023/04/20 08:22:12;;;;;;;4.57;3.10;;;;;;;7.60;69.44;102032.03;6129946;23;20018;-81
2023/04/20 08:24:39;;;;;;;5.43;3.15;;;;;;;7.66;69.01;102022.53;6130888;23;20018;-80
2023/04/20 08:27:07;;;;;;;4.22;3.15;;;;;;;7.83;69.00;102015.63;6104662;23;20815;-80
2023/04/20 08:29:35;;;;;;;3.80;3.05;;;;;;;8.16;68.52;102015.00;6130820;23;20448;-81
2023/04/20 08:32:02;;;;;;;3.72;3.42;;;;;;;8.57;67.44;102003.66;6129868;23;20019;-82
2023/04/20 08:34:29;;;;;;;5.15;3.47;;;;;;;8.95;66.16;102017.66;6104114;23;20030;-80
2023/04/20 08:36:55;;;;;;;4.05;3.05;;;;;;;9.11;65.33;102014.47;6130535;23;20021;-79
2023/04/20 08:39:22;;;;;;;4.68;3.55;;;;;;;9.01;65.46;102014.19;6135718;23;20485;-80
2023/04/20 08:41:54;;;;;;;3.88;3.50;;;;;;;8.86;65.27;102010.16;6131211;23;20023;-80
2023/04/20 08:44:21;;;;;;;5.00;3.47;;;;;;;8.72;65.88;102004.28;6104608;23;20018;-79
2023/04/20 08:46:49;;;;;;;3.72;3.40;;;;;;;8.63;66.16;102012.69;6130607;23;20046;-79
2023/04/20 08:49:17;;;;;;;4.57;3.53;;;;;;;8.61;66.35;102004.38;6130130;23;20062;-80
2023/04/20 08:51:44;;;;;;;4.00;3.60;;;;;;;8.64;66.22;102008.91;6130667;23;20416;-85
2023/04/20 08:54:11;;;;;;;8.00;4.00;;;;;;;8.64;66.41;102006.25;6079985;23;20101;-79
2023/04/20 08:56:40;;;;;;;7.68;3.50;;;;;;;8.72;66.89;101999.72;6130782;23;20147;-79
2023/04/20 08:59:11;;;;;;;4.78;4.00;;;;;;;8.76;66.75;101989.06;6129609;23;20018;-80
2023/04/20 09:01:40;;;;;;;3.80;3.50;;;;;;;8.85;66.54;101992.72;6130559;23;20022;-79
2023/04/20 09:04:19;;;;;;;8.07;3.65;;;;;;;8.98;66.36;101990.31;6104590;23;20046;-81
2023/04/20 09:06:49;;;;;;;4.10;3.80;;;;;;;9.10;65.94;101989.03;6130345;23;20015;-80
2023/04/20 09:09:17;;;;;;;7.28;4.10;;;;;;;9.26;65.74;101997.16;6104259;23;20027;-81
2023/04/20 09:11:44;;;;;;;5.18;3.78;;;;;;;9.36;64.58;101990.97;6141539;23;20019;-80
2023/04/20 09:14:14;;;;;;;3.97;3.63;;;;;;;9.43;63.94;102001.50;6107868;23;20022;-81
2023/04/20 09:17:00;;;;;;;5.57;3.73;;;;;;;9.56;63.74;101989.19;6130650;23;20152;-80
2023/04/20 09:19:29;;;;;;;6.18;4.07;;;;;;;9.67;63.21;101989.75;6130894;23;20054;-80
2023/04/20 09:21:58;;;;;;;6.53;3.70;;;;;;;9.82;62.45;102000.94;6129846;23;20082;-80
2023/04/20 09:24:35;;;;;;;4.30;3.95;;;;;;;9.85;62.84;102002.06;6130785;23;20023;-79
2023/04/20 09:27:22;;;;;;;4.75;4.35;;;;;;;9.96;62.17;102006.06;6104695;23;20125;-76
2023/04/20 09:29:56;;;;;;;4.32;3.88;;;;;;;9.85;62.32;101988.75;6130584;23;20018;-81
2023/04/20 09:32:24;;;;;;;5.63;4.30;;;;;;;9.92;62.13;101976.09;6130686;23;20097;-80
2023/04/20 09:34:51;;;;;;;4.30;4.00;;;;;;;10.26;61.26;101972.53;6104091;23;20015;-80
2023/04/20 09:37:17;;;;;;;4.47;4.10;;;;;;;10.54;60.41;101982.66;6103953;23;20101;-80
2023/04/20 09:39:45;;;;;;;4.43;4.10;;;;;;;10.69;60.35;101975.91;6130395;23;20090;-80
2023/04/20 09:42:13;;;;;;;4.47;4.18;;;;;;;11.03;60.01;101982.84;6104611;23;20022;-79
2023/04/20 09:44:40;;;;;;;4.65;4.15;;;;;;;11.09;59.02;101975.13;6138947;23;20125;-79
2023/04/20 09:47:08;;;;;;;5.93;3.95;;;;;;;11.01;58.84;101969.94;6130702;23;20014;-81
2023/04/20 09:49:40;;;;;;;4.35;4.05;;;;;;;10.77;59.04;101970.44;6130151;23;20029;-81
2023/04/20 09:52:07;;;;;;;4.10;3.80;;;;;;;10.56;59.58;101976.91;6129608;23;20023;-82
2023/04/20 09:54:36;;;;;;;7.20;4.45;;;;;;;10.51;59.18;101970.16;6130362;23;20022;-81
2023/04/20 09:57:03;;;;;;;4.35;3.95;;;;;;;10.48;59.76;101970.97;6130372;23;20093;-81
2023/04/20 09:59:32;;;;;;;4.20;3.90;;;;;;;10.61;58.61;101971.88;6130322;23;20053;-81
2023/04/20 10:01:58;;;;;;;4.25;3.85;;;;;;;10.53;57.72;101978.47;6129830;23;20022;-81
2023/04/20 10:04:25;;;;;;;5.22;4.75;;;;;;;10.46;58.39;101965.31;6129922;23;20014;-81
2023/04/20 10:06:54;;;;;;;4.57;3.95;;;;;;;10.44;57.89;101958.88;6130665;23;20464;-81
2023/04/20 10:09:23;;;;;;;6.07;4.55;;;;;;;10.42;59.20;101958.53;6130424;23;20024;-81
2023/04/20 10:11:50;;;;;;;7.47;4.38;;;;;;;10.57;60.44;101957.88;6130315;23;20018;-83
2023/04/20 10:14:22;;;;;;;5.00;4.40;;;;;;;10.69;61.58;101951.19;6130428;23;20014;-83
2023/04/20 10:17:06;;;;;;;4.50;4.10;;;;;;;10.63;61.92;101948.25;6137722;23;20043;-82
2023/04/20 10:19:44;;;;;;;5.65;4.47;;;;;;;10.68;62.25;101952.34;6104573;23;20042;-83
2023/04/20 10:22:13;;;;;;;4.88;4.20;;;;;;;10.65;62.30;101950.50;6130095;23;20023;-82
2023/04/20 10:24:39;;;;;;;6.70;4.57;;;;;;;10.66;61.40;101944.78;6104560;23;20026;-82
2023/04/20 10:27:16;;;;;;;6.07;4.40;;;;;;;10.70;62.67;101939.38;6129921;23;20018;-81
2023/04/20 10:29:43;;;;;;;7.72;4.53;;;;;;;10.80;60.49;101953.63;6129879;23;20085;-86
2023/04/20 10:32:27;;;;;;;4.57;4.10;;;;;;;10.80;61.40;101942.97;6104105;23;20019;-91
2023/04/20 10:35:05;;;;;;;7.88;4.22;;;;;;;10.89;60.10;101949.25;6130383;23;20022;-82
2023/04/20 10:37:32;;;;;;;5.60;4.68;;;;;;;10.80;57.24;101941.06;6103913;23;20082;-81
2023/04/20 10:39:59;;;;;;;4.93;4.50;;;;;;;10.68;56.69;101939.03;6129970;23;20082;-81
2023/04/20 10:42:28;;;;;;;5.10;4.22;;;;;;;10.66;56.37;101928.03;6130054;23;20457;-80
2023/04/20 10:44:54;;;;;;;4.95;4.18;;;;;;;10.55;55.77;101936.22;6130254;23;20416;-82
2023/04/20 10:47:30;;;;;;;4.32;3.95;;;;;;;10.46;56.29;101932.59;6129985;23;20338;-83
2023/04/20 10:50:11;;;;;;;5.50;5.00;;;;;;;10.40;56.11;101929.66;6141542;23;20018;-83
2023/04/20 10:52:39;;;;;;;4.85;4.45;;;;;;;10.39;56.53;101935.41;6130278;23;20053;-83
2023/04/20 10:55:20;;;;;;;4.55;4.25;;;;;;;10.44;57.09;101929.59;6129635;23;20018;-83
2023/04/20 10:57:47;;;;;;;4.78;4.38;;;;;;;10.48;56.72;101924.97;6129708;23;20460;-81
2023/04/20 11:00:26;;;;;;;4.95;4.53;;;;;;;10.70;56.39;101920.72;6129224;23;20023;-79
2023/04/20 11:02:57;;;;;;;4.40;4.00;;;;;;;10.89;55.67;101913.88;6103829;23;20054;-82
2023/04/20 11:05:26;;;;;;;4.45;4.05;;;;;;;10.99;54.70;101915.56;6130025;23;20021;-81
2023/04/20 11:07:53;;;;;;;5.05;3.97;;;;;;;11.11;54.29;101906.94;6129943;23;20042;-80
2023/04/20 11:10:22;;;;;;;4.57;4.25;;;;;;;11.66;53.42;101907.91;6129766;23;20437;-80
2023/04/20 11:12:48;;;;;;;6.30;4.28;;;;;;;11.99;51.85;101909.44;6129664;23;20025;-83
2023/04/20 11:15:15;;;;;;;9.55;4.43;;;;;;;11.86;51.49;101905.19;6129372;23;20527;-82
2023/04/20 11:17:42;;;;;;;4.22;3.90;;;;;;;11.74;52.25;101903.91;6129497;23;20476;-83
2023/04/20 11:20:13;;;;;;;3.95;3.65;;;;;;;11.75;52.57;101904.66;6129398;23;20051;-83
2023/04/20 11:22:42;;;;;;;4.25;3.85;;;;;;;11.77;51.47;101900.44;6139340;23;20018;-82
2023/04/20 11:25:10;;;;;;;4.90;4.38;;;;;;;11.60;51.15;101894.34;6129817;23;20006;-82
2023/04/20 11:27:37;;;;;;;4.70;4.22;;;;;;;11.57;50.68;101892.53;6130028;23;20015;-83
2023/04/20 11:30:06;;;;;;;3.97;3.67;;;;;;;11.45;50.79;101900.44;6129310;23;20021;-83
2023/04/20 11:32:34;;;;;;;4.45;3.92;;;;;;;11.49;50.88;101893.88;6130239;23;20082;-82
2023/04/20 11:35:06;;;;;;;4.47;3.78;;;;;;;11.57;51.34;101886.44;6105002;23;20456;-82
2023/04/20 11:37:45;;;;;;;5.90;3.65;;;;;;;11.81;51.11;101881.69;6131258;23;20416;-82